Ever Unicorn — 9V7963 — position and weather

sailwx.info

Track history (hours):
 
Tides and Currents Weather Stations Pressure Air Temp Water Temp Dewpoint Dewpoint Depression Visibility Wind Speed Wind Dir Waves Ship Positions

Ever Unicorn

Last reported at 2015-Jul-06 21:33 UTC. Time now 2015-Jul-06 22:06 UTC.
Position N 33°44' W 118°15'.

Length 285 m; draft 11.8 m.

Type: Ship (hazmat cat D). MMSI: 564995000.

Date/timePositionNaut miles runAvg speedWind from/ knotsBaromVisibWave heightAir tempDewpointWater temp
2015-Jul-06 21:33N 33°44' W 118°15'0 0.0
2015-Jul-06 20:33N 33°44' W 118°15'0 0.0
2015-Jul-06 19:33N 33°44' W 118°15'0 0.0
2015-Jul-06 18:33N 33°44' W 118°15'0 0.0
2015-Jul-06 17:33N 33°44' W 118°15'0 0.0
2015-Jul-06 16:28N 33°44' W 118°15'0 0.0
2015-Jul-06 15:33N 33°44' W 118°15'0 0.0
2015-Jul-06 14:33N 33°44' W 118°15'0 0.0
2015-Jul-06 12:17N 33°44' W 118°15'0 0.0
2015-Jul-06 11:19N 33°44' W 118°15'0 0.0
2015-Jul-06 10:29N 33°44' W 118°15'1 1.5
2015-Jul-06 09:33N 33°42' W 118°15'7 6.8
2015-Jul-06 08:33N 33°36' W 118°18'11 9.5
2015-Jul-06 07:26N 33°36' W 118°30'9 9.9
2015-Jul-06 06:33N 33°36' W 118°41'23 9.9
2015-Jul-06 04:15N 33°37' W 119°08'17 8.5
2015-Jul-06 02:18N 33°36' W 119°28'2612.2
2015-Jul-06 00:13N 33°33' W 119°58'912.3
2015-Jul-05 23:31N 33°31' W 120°08'1212.5
2015-Jul-05 22:33N 33°30' W 120°23'5112.7
2015-Jul-05 18:31N 33°32' W 121°24'4013.1
2015-Jul-05 15:28N 33°33' W 122°12'1313.1
2015-Jul-05 14:30N 33°33' W 122°28'3913.2
2015-Jul-05 11:33N 33°33' W 123°14'23915.6
2015-Jul-04 20:13N 34°44' W 127°50'1717.0
2015-Jul-04 19:12N 34°51' W 128°09'7816.7
2015-Jul-04 14:33N 35°20' W 129°37'  
2015-Jun-28 06:00N 44°18' E 174°54'   140 / 311003.0 1.1 1.511.011.0 8.0
Track history (hours):
 
Tides and Currents Weather Stations Pressure Air Temp Water Temp Dewpoint Dewpoint Depression Visibility Wind Speed Wind Dir Waves Ship Positions

Ever Unicorn

Last reported at 2015-Jul-06 21:33 UTC. Time now 2015-Jul-06 22:06 UTC.
Position N 33°44' W 118°15'.

Length 285 m; draft 11.8 m.

Type: Ship (hazmat cat D). MMSI: 564995000.

Date/timePositionNaut miles runAvg speedWind from/ knotsBaromVisibWave heightAir tempDewpointWater temp
2015-Jul-06 21:33N 33°44' W 118°15'0 0.0
2015-Jul-06 20:33N 33°44' W 118°15'0 0.0
2015-Jul-06 19:33N 33°44' W 118°15'0 0.0
2015-Jul-06 18:33N 33°44' W 118°15'0 0.0
2015-Jul-06 17:33N 33°44' W 118°15'0 0.0
2015-Jul-06 16:28N 33°44' W 118°15'0 0.0
2015-Jul-06 15:33N 33°44' W 118°15'0 0.0
2015-Jul-06 14:33N 33°44' W 118°15'0 0.0
2015-Jul-06 12:17N 33°44' W 118°15'0 0.0
2015-Jul-06 11:19N 33°44' W 118°15'0 0.0
2015-Jul-06 10:29N 33°44' W 118°15'1 1.5
2015-Jul-06 09:33N 33°42' W 118°15'7 6.8
2015-Jul-06 08:33N 33°36' W 118°18'11 9.5
2015-Jul-06 07:26N 33°36' W 118°30'9 9.9
2015-Jul-06 06:33N 33°36' W 118°41'23 9.9
2015-Jul-06 04:15N 33°37' W 119°08'17 8.5
2015-Jul-06 02:18N 33°36' W 119°28'2612.2
2015-Jul-06 00:13N 33°33' W 119°58'912.3
2015-Jul-05 23:31N 33°31' W 120°08'1212.5
2015-Jul-05 22:33N 33°30' W 120°23'5112.7
2015-Jul-05 18:31N 33°32' W 121°24'4013.1
2015-Jul-05 15:28N 33°33' W 122°12'1313.1
2015-Jul-05 14:30N 33°33' W 122°28'3913.2
2015-Jul-05 11:33N 33°33' W 123°14'23915.6
2015-Jul-04 20:13N 34°44' W 127°50'1717.0
2015-Jul-04 19:12N 34°51' W 128°09'7816.7
2015-Jul-04 14:33N 35°20' W 129°37'  
2015-Jun-28 06:00N 44°18' E 174°54'   140 / 311003.0 1.1 1.511.011.0 8.0

Dump ship's entire track history